sensor_id;sensor_type;location;lat;lon;timestamp;P1;durP1;ratioP1;P2;durP2;ratioP2
76978;SDS011;65911;47.502;19.148;2023-06-10T00:01:13;4.37;;;2.37;;
76978;SDS011;65911;47.502;19.148;2023-06-10T00:04:15;3.47;;;2.20;;
76978;SDS011;65911;47.502;19.148;2023-06-10T00:07:18;5.43;;;2.10;;
76978;SDS011;65911;47.502;19.148;2023-06-10T00:10:20;3.50;;;2.43;;
76978;SDS011;65911;47.502;19.148;2023-06-10T00:13:23;3.78;;;2.30;;
76978;SDS011;65911;47.502;19.148;2023-06-10T00:16:25;6.22;;;2.38;;
76978;SDS011;65911;47.502;19.148;2023-06-10T00:19:28;6.05;;;2.67;;
76978;SDS011;65911;47.502;19.148;2023-06-10T00:22:33;5.07;;;2.42;;
76978;SDS011;65911;47.502;19.148;2023-06-10T00:25:35;6.90;;;2.10;;
76978;SDS011;65911;47.502;19.148;2023-06-10T00:28:38;2.78;;;1.88;;
76978;SDS011;65911;47.502;19.148;2023-06-10T00:31:40;5.23;;;2.10;;
76978;SDS011;65911;47.502;19.148;2023-06-10T00:34:42;5.07;;;2.38;;
76978;SDS011;65911;47.502;19.148;2023-06-10T00:37:44;3.65;;;2.05;;
76978;SDS011;65911;47.502;19.148;2023-06-10T00:40:47;4.60;;;2.30;;
76978;SDS011;65911;47.502;19.148;2023-06-10T00:43:52;3.55;;;2.38;;
76978;SDS011;65911;47.502;19.148;2023-06-10T00:46:54;3.03;;;2.28;;
76978;SDS011;65911;47.502;19.148;2023-06-10T00:49:58;4.90;;;2.20;;
76978;SDS011;65911;47.502;19.148;2023-06-10T00:53:00;4.93;;;2.75;;
76978;SDS011;65911;47.502;19.148;2023-06-10T00:56:03;4.68;;;2.50;;
76978;SDS011;65911;47.502;19.148;2023-06-10T00:59:05;3.80;;;2.55;;
76978;SDS011;65911;47.502;19.148;2023-06-10T01:02:08;4.73;;;2.53;;
76978;SDS011;65911;47.502;19.148;2023-06-10T01:05:11;3.15;;;2.40;;
76978;SDS011;65911;47.502;19.148;2023-06-10T01:11:52;3.60;;;2.70;;
76978;SDS011;65911;47.502;19.148;2023-06-10T01:15:00;3.53;;;2.53;;
76978;SDS011;65911;47.502;19.148;2023-06-10T01:18:05;3.72;;;2.90;;
76978;SDS011;65911;47.502;19.148;2023-06-10T01:21:21;5.07;;;2.38;;
76978;SDS011;65911;47.502;19.148;2023-06-10T01:24:27;3.35;;;2.72;;
76978;SDS011;65911;47.502;19.148;2023-06-10T01:27:30;5.45;;;2.20;;
76978;SDS011;65911;47.502;19.148;2023-06-10T01:30:43;5.82;;;2.30;;
76978;SDS011;65911;47.502;19.148;2023-06-10T01:33:58;3.80;;;2.63;;
76978;SDS011;65911;47.502;19.148;2023-06-10T01:37:00;3.42;;;2.58;;
76978;SDS011;65911;47.502;19.148;2023-06-10T01:40:03;2.40;;;2.20;;
76978;SDS011;65911;47.502;19.148;2023-06-10T01:43:09;4.23;;;2.93;;
76978;SDS011;65911;47.502;19.148;2023-06-10T01:46:11;4.00;;;2.50;;
76978;SDS011;65911;47.502;19.148;2023-06-10T01:49:14;4.78;;;2.53;;
76978;SDS011;65911;47.502;19.148;2023-06-10T01:52:18;3.85;;;2.88;;
76978;SDS011;65911;47.502;19.148;2023-06-10T01:55:20;3.42;;;2.88;;
76978;SDS011;65911;47.502;19.148;2023-06-10T01:58:22;4.30;;;2.78;;
76978;SDS011;65911;47.502;19.148;2023-06-10T02:01:25;5.00;;;2.40;;
76978;SDS011;65911;47.502;19.148;2023-06-10T02:04:27;3.30;;;2.43;;
76978;SDS011;65911;47.502;19.148;2023-06-10T02:07:30;3.63;;;2.40;;
76978;SDS011;65911;47.502;19.148;2023-06-10T02:10:32;5.78;;;2.80;;
76978;SDS011;65911;47.502;19.148;2023-06-10T02:13:34;6.23;;;2.87;;
76978;SDS011;65911;47.502;19.148;2023-06-10T02:16:36;3.97;;;2.40;;
76978;SDS011;65911;47.502;19.148;2023-06-10T02:19:40;5.82;;;2.90;;
76978;SDS011;65911;47.502;19.148;2023-06-10T02:22:44;2.97;;;2.30;;
76978;SDS011;65911;47.502;19.148;2023-06-10T02:25:46;3.70;;;2.60;;
76978;SDS011;65911;47.502;19.148;2023-06-10T02:28:50;6.22;;;2.63;;
76978;SDS011;65911;47.502;19.148;2023-06-10T02:31:52;6.85;;;3.10;;
76978;SDS011;65911;47.502;19.148;2023-06-10T02:34:55;6.50;;;2.30;;
76978;SDS011;65911;47.502;19.148;2023-06-10T02:37:59;4.18;;;2.40;;
76978;SDS011;65911;47.502;19.148;2023-06-10T02:41:03;4.00;;;2.65;;
76978;SDS011;65911;47.502;19.148;2023-06-10T02:44:06;4.77;;;2.73;;
76978;SDS011;65911;47.502;19.148;2023-06-10T02:47:08;6.57;;;2.67;;
76978;SDS011;65911;47.502;19.148;2023-06-10T02:50:12;3.72;;;2.20;;
76978;SDS011;65911;47.502;19.148;2023-06-10T02:53:25;2.85;;;2.60;;
76978;SDS011;65911;47.502;19.148;2023-06-10T02:56:35;3.47;;;2.25;;
76978;SDS011;65911;47.502;19.148;2023-06-10T02:59:40;5.70;;;2.67;;
76978;SDS011;65911;47.502;19.148;2023-06-10T03:02:43;5.55;;;2.58;;
76978;SDS011;65911;47.502;19.148;2023-06-10T03:05:48;6.43;;;2.23;;
76978;SDS011;65911;47.502;19.148;2023-06-10T03:08:53;7.53;;;2.72;;
76978;SDS011;65911;47.502;19.148;2023-06-10T03:11:55;5.43;;;2.45;;
76978;SDS011;65911;47.502;19.148;2023-06-10T03:14:58;6.40;;;2.80;;
76978;SDS011;65911;47.502;19.148;2023-06-10T03:18:02;6.18;;;2.90;;
76978;SDS011;65911;47.502;19.148;2023-06-10T03:21:04;3.60;;;2.63;;
76978;SDS011;65911;47.502;19.148;2023-06-10T03:24:07;4.43;;;2.63;;
76978;SDS011;65911;47.502;19.148;2023-06-10T03:27:10;7.53;;;3.10;;
76978;SDS011;65911;47.502;19.148;2023-06-10T03:30:15;8.40;;;3.35;;
76978;SDS011;65911;47.502;19.148;2023-06-10T03:33:19;4.50;;;2.42;;
76978;SDS011;65911;47.502;19.148;2023-06-10T03:36:21;4.47;;;2.50;;
76978;SDS011;65911;47.502;19.148;2023-06-10T03:39:24;3.35;;;2.13;;
76978;SDS011;65911;47.502;19.148;2023-06-10T03:42:27;5.47;;;2.78;;
76978;SDS011;65911;47.502;19.148;2023-06-10T03:45:29;6.70;;;3.20;;
76978;SDS011;65911;47.502;19.148;2023-06-10T03:48:32;4.68;;;2.38;;
76978;SDS011;65911;47.502;19.148;2023-06-10T03:51:35;3.42;;;2.40;;
76978;SDS011;65911;47.502;19.148;2023-06-10T03:54:38;5.15;;;2.60;;
76978;SDS011;65911;47.502;19.148;2023-06-10T03:57:40;5.65;;;2.75;;
76978;SDS011;65911;47.502;19.148;2023-06-10T04:00:42;3.80;;;2.75;;
76978;SDS011;65911;47.502;19.148;2023-06-10T04:03:45;2.88;;;2.40;;
76978;SDS011;65911;47.502;19.148;2023-06-10T04:06:47;4.83;;;2.33;;
76978;SDS011;65911;47.502;19.148;2023-06-10T04:09:50;4.35;;;2.50;;
76978;SDS011;65911;47.502;19.148;2023-06-10T04:12:53;2.95;;;2.58;;
76978;SDS011;65911;47.502;19.148;2023-06-10T04:15:57;6.63;;;2.73;;
76978;SDS011;65911;47.502;19.148;2023-06-10T04:19:00;6.75;;;2.40;;
76978;SDS011;65911;47.502;19.148;2023-06-10T04:22:03;4.13;;;2.03;;
76978;SDS011;65911;47.502;19.148;2023-06-10T04:25:08;3.28;;;2.20;;
76978;SDS011;65911;47.502;19.148;2023-06-10T04:28:13;4.38;;;2.25;;
76978;SDS011;65911;47.502;19.148;2023-06-10T04:31:16;3.42;;;2.33;;
76978;SDS011;65911;47.502;19.148;2023-06-10T04:34:19;2.60;;;2.38;;
76978;SDS011;65911;47.502;19.148;2023-06-10T04:37:21;3.83;;;2.27;;
76978;SDS011;65911;47.502;19.148;2023-06-10T04:40:24;3.80;;;2.03;;
76978;SDS011;65911;47.502;19.148;2023-06-10T04:43:26;3.05;;;1.98;;
76978;SDS011;65911;47.502;19.148;2023-06-10T04:46:31;4.63;;;2.07;;
76978;SDS011;65911;47.502;19.148;2023-06-10T04:49:35;2.95;;;2.20;;
76978;SDS011;65911;47.502;19.148;2023-06-10T04:52:37;3.30;;;1.92;;
76978;SDS011;65911;47.502;19.148;2023-06-10T04:55:40;3.35;;;1.98;;
76978;SDS011;65911;47.502;19.148;2023-06-10T04:58:42;5.55;;;2.30;;
76978;SDS011;65911;47.502;19.148;2023-06-10T05:01:44;3.85;;;1.95;;
76978;SDS011;65911;47.502;19.148;2023-06-10T05:04:47;4.18;;;2.10;;
76978;SDS011;65911;47.502;19.148;2023-06-10T05:07:49;2.50;;;1.90;;
76978;SDS011;65911;47.502;19.148;2023-06-10T05:10:51;3.17;;;1.70;;
76978;SDS011;65911;47.502;19.148;2023-06-10T05:13:54;2.50;;;2.05;;
76978;SDS011;65911;47.502;19.148;2023-06-10T05:16:56;4.00;;;1.67;;
76978;SDS011;65911;47.502;19.148;2023-06-10T05:19:58;1.50;;;1.40;;
76978;SDS011;65911;47.502;19.148;2023-06-10T05:23:01;2.53;;;1.67;;
76978;SDS011;65911;47.502;19.148;2023-06-10T05:26:03;2.53;;;1.73;;
76978;SDS011;65911;47.502;19.148;2023-06-10T05:29:05;2.47;;;1.80;;
76978;SDS011;65911;47.502;19.148;2023-06-10T05:32:08;3.83;;;1.90;;
76978;SDS011;65911;47.502;19.148;2023-06-10T05:35:11;3.25;;;2.05;;
76978;SDS011;65911;47.502;19.148;2023-06-10T05:38:13;4.93;;;1.57;;
76978;SDS011;65911;47.502;19.148;2023-06-10T05:41:16;2.00;;;1.40;;
76978;SDS011;65911;47.502;19.148;2023-06-10T05:44:18;2.58;;;1.40;;
76978;SDS011;65911;47.502;19.148;2023-06-10T05:47:20;1.93;;;1.63;;
76978;SDS011;65911;47.502;19.148;2023-06-10T05:50:24;3.42;;;1.25;;
76978;SDS011;65911;47.502;19.148;2023-06-10T05:53:26;2.45;;;1.52;;
76978;SDS011;65911;47.502;19.148;2023-06-10T05:56:28;3.42;;;1.60;;
76978;SDS011;65911;47.502;19.148;2023-06-10T05:59:31;6.22;;;1.70;;
76978;SDS011;65911;47.502;19.148;2023-06-10T06:02:33;3.00;;;1.70;;
76978;SDS011;65911;47.502;19.148;2023-06-10T06:05:36;5.05;;;1.75;;
76978;SDS011;65911;47.502;19.148;2023-06-10T06:08:39;2.83;;;1.70;;
76978;SDS011;65911;47.502;19.148;2023-06-10T06:11:41;3.28;;;2.15;;
76978;SDS011;65911;47.502;19.148;2023-06-10T06:14:43;3.38;;;1.83;;
76978;SDS011;65911;47.502;19.148;2023-06-10T06:17:46;5.33;;;2.20;;
76978;SDS011;65911;47.502;19.148;2023-06-10T06:20:49;3.63;;;1.77;;
76978;SDS011;65911;47.502;19.148;2023-06-10T06:23:51;2.13;;;1.75;;
76978;SDS011;65911;47.502;19.148;2023-06-10T06:26:54;2.75;;;1.90;;
76978;SDS011;65911;47.502;19.148;2023-06-10T06:29:56;2.40;;;2.20;;
76978;SDS011;65911;47.502;19.148;2023-06-10T06:32:59;2.70;;;1.90;;
76978;SDS011;65911;47.502;19.148;2023-06-10T06:36:01;3.28;;;1.63;;
76978;SDS011;65911;47.502;19.148;2023-06-10T06:39:03;2.93;;;2.17;;
76978;SDS011;65911;47.502;19.148;2023-06-10T06:42:06;3.28;;;2.15;;
76978;SDS011;65911;47.502;19.148;2023-06-10T06:45:22;2.25;;;2.00;;
76978;SDS011;65911;47.502;19.148;2023-06-10T06:48:24;4.43;;;2.50;;
76978;SDS011;65911;47.502;19.148;2023-06-10T06:51:26;4.40;;;2.20;;
76978;SDS011;65911;47.502;19.148;2023-06-10T06:54:30;3.30;;;2.67;;
76978;SDS011;65911;47.502;19.148;2023-06-10T06:57:32;3.22;;;2.05;;
76978;SDS011;65911;47.502;19.148;2023-06-10T07:00:34;3.38;;;2.25;;
76978;SDS011;65911;47.502;19.148;2023-06-10T07:03:37;2.30;;;2.05;;
76978;SDS011;65911;47.502;19.148;2023-06-10T07:06:39;4.63;;;2.28;;
76978;SDS011;65911;47.502;19.148;2023-06-10T07:09:41;2.80;;;2.07;;
76978;SDS011;65911;47.502;19.148;2023-06-10T07:12:46;2.80;;;2.50;;
76978;SDS011;65911;47.502;19.148;2023-06-10T07:15:48;3.10;;;2.80;;
76978;SDS011;65911;47.502;19.148;2023-06-10T07:18:52;2.93;;;1.93;;
76978;SDS011;65911;47.502;19.148;2023-06-10T07:21:54;2.47;;;2.22;;
76978;SDS011;65911;47.502;19.148;2023-06-10T07:24:57;3.78;;;2.40;;
76978;SDS011;65911;47.502;19.148;2023-06-10T07:27:59;3.72;;;2.78;;
76978;SDS011;65911;47.502;19.148;2023-06-10T07:31:02;3.88;;;2.40;;
76978;SDS011;65911;47.502;19.148;2023-06-10T07:34:04;3.72;;;2.45;;
76978;SDS011;65911;47.502;19.148;2023-06-10T07:37:06;5.00;;;2.65;;
76978;SDS011;65911;47.502;19.148;2023-06-10T07:40:08;3.37;;;2.70;;
76978;SDS011;65911;47.502;19.148;2023-06-10T07:43:11;3.78;;;3.15;;
76978;SDS011;65911;47.502;19.148;2023-06-10T07:46:13;3.67;;;3.17;;
76978;SDS011;65911;47.502;19.148;2023-06-10T07:49:15;3.07;;;2.77;;
76978;SDS011;65911;47.502;19.148;2023-06-10T07:52:17;3.13;;;2.63;;
76978;SDS011;65911;47.502;19.148;2023-06-10T07:55:20;3.95;;;3.33;;
76978;SDS011;65911;47.502;19.148;2023-06-10T07:58:22;3.40;;;3.10;;
76978;SDS011;65911;47.502;19.148;2023-06-10T08:01:24;3.83;;;3.50;;
76978;SDS011;65911;47.502;19.148;2023-06-10T08:04:26;3.92;;;3.47;;
76978;SDS011;65911;47.502;19.148;2023-06-10T08:07:29;5.03;;;3.60;;
76978;SDS011;65911;47.502;19.148;2023-06-10T08:10:32;5.63;;;4.00;;
76978;SDS011;65911;47.502;19.148;2023-06-10T08:13:34;4.57;;;3.90;;
76978;SDS011;65911;47.502;19.148;2023-06-10T08:16:37;3.88;;;3.20;;
76978;SDS011;65911;47.502;19.148;2023-06-10T08:19:39;4.17;;;3.50;;
76978;SDS011;65911;47.502;19.148;2023-06-10T08:22:41;5.38;;;4.00;;
76978;SDS011;65911;47.502;19.148;2023-06-10T08:25:43;5.78;;;5.15;;
76978;SDS011;65911;47.502;19.148;2023-06-10T08:28:46;6.70;;;5.30;;
76978;SDS011;65911;47.502;19.148;2023-06-10T08:31:48;7.10;;;5.43;;
76978;SDS011;65911;47.502;19.148;2023-06-10T08:34:50;8.15;;;5.68;;
76978;SDS011;65911;47.502;19.148;2023-06-10T08:37:52;7.13;;;5.50;;
76978;SDS011;65911;47.502;19.148;2023-06-10T08:40:59;7.30;;;5.93;;
76978;SDS011;65911;47.502;19.148;2023-06-10T08:44:26;8.07;;;5.30;;
76978;SDS011;65911;47.502;19.148;2023-06-10T08:47:29;9.35;;;5.90;;
76978;SDS011;65911;47.502;19.148;2023-06-10T08:50:34;7.37;;;6.10;;
76978;SDS011;65911;47.502;19.148;2023-06-10T08:53:44;6.32;;;5.20;;
76978;SDS011;65911;47.502;19.148;2023-06-10T08:56:51;8.13;;;6.45;;
76978;SDS011;65911;47.502;19.148;2023-06-10T08:59:56;7.38;;;6.25;;
76978;SDS011;65911;47.502;19.148;2023-06-10T09:02:59;7.80;;;6.22;;
76978;SDS011;65911;47.502;19.148;2023-06-10T09:06:05;7.18;;;6.13;;
76978;SDS011;65911;47.502;19.148;2023-06-10T09:09:08;7.40;;;5.93;;
76978;SDS011;65911;47.502;19.148;2023-06-10T09:12:11;7.77;;;6.10;;
76978;SDS011;65911;47.502;19.148;2023-06-10T09:15:15;7.97;;;5.68;;
76978;SDS011;65911;47.502;19.148;2023-06-10T09:18:19;8.98;;;6.60;;
76978;SDS011;65911;47.502;19.148;2023-06-10T09:21:22;7.43;;;6.60;;
76978;SDS011;65911;47.502;19.148;2023-06-10T09:24:25;8.77;;;6.80;;
76978;SDS011;65911;47.502;19.148;2023-06-10T09:27:30;7.65;;;6.57;;
76978;SDS011;65911;47.502;19.148;2023-06-10T09:30:34;7.43;;;6.63;;
76978;SDS011;65911;47.502;19.148;2023-06-10T09:33:37;9.27;;;7.35;;
76978;SDS011;65911;47.502;19.148;2023-06-10T09:36:41;7.82;;;6.80;;
76978;SDS011;65911;47.502;19.148;2023-06-10T09:39:43;8.77;;;7.68;;
76978;SDS011;65911;47.502;19.148;2023-06-10T09:42:45;9.10;;;8.00;;
76978;SDS011;65911;47.502;19.148;2023-06-10T09:45:51;13.13;;;7.43;;
76978;SDS011;65911;47.502;19.148;2023-06-10T09:48:56;11.82;;;8.00;;
76978;SDS011;65911;47.502;19.148;2023-06-10T09:51:59;11.63;;;8.70;;
76978;SDS011;65911;47.502;19.148;2023-06-10T09:55:02;9.45;;;7.80;;
76978;SDS011;65911;47.502;19.148;2023-06-10T09:58:04;11.40;;;8.80;;
76978;SDS011;65911;47.502;19.148;2023-06-10T10:01:10;9.27;;;8.32;;
76978;SDS011;65911;47.502;19.148;2023-06-10T10:04:22;9.75;;;8.27;;
76978;SDS011;65911;47.502;19.148;2023-06-10T10:07:25;9.23;;;8.23;;
76978;SDS011;65911;47.502;19.148;2023-06-10T10:10:27;9.48;;;8.40;;
76978;SDS011;65911;47.502;19.148;2023-06-10T10:13:30;10.00;;;9.00;;
76978;SDS011;65911;47.502;19.148;2023-06-10T10:16:39;11.15;;;9.32;;
76978;SDS011;65911;47.502;19.148;2023-06-10T10:19:48;10.73;;;9.48;;
76978;SDS011;65911;47.502;19.148;2023-06-10T10:22:52;11.10;;;9.40;;
76978;SDS011;65911;47.502;19.148;2023-06-10T10:26:01;11.15;;;9.93;;
76978;SDS011;65911;47.502;19.148;2023-06-10T10:29:24;11.15;;;9.88;;
76978;SDS011;65911;47.502;19.148;2023-06-10T10:32:35;11.93;;;9.65;;
76978;SDS011;65911;47.502;19.148;2023-06-10T10:35:45;11.38;;;10.18;;
76978;SDS011;65911;47.502;19.148;2023-06-10T10:38:48;10.73;;;9.63;;
76978;SDS011;65911;47.502;19.148;2023-06-10T10:41:54;12.65;;;9.63;;
76978;SDS011;65911;47.502;19.148;2023-06-10T10:44:57;9.73;;;8.77;;
76978;SDS011;65911;47.502;19.148;2023-06-10T10:47:59;10.57;;;9.10;;
76978;SDS011;65911;47.502;19.148;2023-06-10T10:51:07;10.23;;;9.23;;
76978;SDS011;65911;47.502;19.148;2023-06-10T10:54:11;9.73;;;8.27;;
76978;SDS011;65911;47.502;19.148;2023-06-10T11:00:27;8.27;;;7.47;;
76978;SDS011;65911;47.502;19.148;2023-06-10T11:03:34;8.95;;;7.78;;
76978;SDS011;65911;47.502;19.148;2023-06-10T11:06:52;8.15;;;7.35;;
76978;SDS011;65911;47.502;19.148;2023-06-10T11:09:59;8.55;;;7.60;;
76978;SDS011;65911;47.502;19.148;2023-06-10T11:13:12;8.95;;;8.05;;
76978;SDS011;65911;47.502;19.148;2023-06-10T11:16:19;9.83;;;7.60;;
76978;SDS011;65911;47.502;19.148;2023-06-10T11:19:31;8.98;;;8.07;;
76978;SDS011;65911;47.502;19.148;2023-06-10T11:22:42;8.02;;;7.22;;
76978;SDS011;65911;47.502;19.148;2023-06-10T11:26:09;8.27;;;7.47;;
76978;SDS011;65911;47.502;19.148;2023-06-10T11:29:14;7.85;;;7.07;;
76978;SDS011;65911;47.502;19.148;2023-06-10T11:32:17;7.75;;;6.35;;
76978;SDS011;65911;47.502;19.148;2023-06-10T11:35:19;7.68;;;6.68;;
76978;SDS011;65911;47.502;19.148;2023-06-10T11:38:23;6.70;;;6.10;;
76978;SDS011;65911;47.502;19.148;2023-06-10T11:41:25;7.00;;;6.30;;
76978;SDS011;65911;47.502;19.148;2023-06-10T11:44:28;7.13;;;6.35;;
76978;SDS011;65911;47.502;19.148;2023-06-10T11:47:31;7.40;;;6.40;;
76978;SDS011;65911;47.502;19.148;2023-06-10T11:50:34;6.68;;;6.07;;
76978;SDS011;65911;47.502;19.148;2023-06-10T11:53:36;6.10;;;5.50;;
76978;SDS011;65911;47.502;19.148;2023-06-10T11:56:38;6.50;;;5.90;;
76978;SDS011;65911;47.502;19.148;2023-06-10T11:59:40;5.75;;;5.25;;
76978;SDS011;65911;47.502;19.148;2023-06-10T12:02:43;5.60;;;4.97;;
76978;SDS011;65911;47.502;19.148;2023-06-10T12:05:58;5.30;;;4.80;;
76978;SDS011;65911;47.502;19.148;2023-06-10T12:09:02;5.50;;;5.00;;
76978;SDS011;65911;47.502;19.148;2023-06-10T12:12:24;5.47;;;4.97;;
76978;SDS011;65911;47.502;19.148;2023-06-10T12:15:27;4.65;;;4.25;;
76978;SDS011;65911;47.502;19.148;2023-06-10T12:18:30;3.93;;;3.50;;
76978;SDS011;65911;47.502;19.148;2023-06-10T12:21:33;4.95;;;4.20;;
76978;SDS011;65911;47.502;19.148;2023-06-10T12:24:57;3.80;;;3.42;;
76978;SDS011;65911;47.502;19.148;2023-06-10T12:28:03;4.07;;;3.67;;
76978;SDS011;65911;47.502;19.148;2023-06-10T12:31:06;3.55;;;3.25;;
76978;SDS011;65911;47.502;19.148;2023-06-10T12:34:12;3.90;;;3.50;;
76978;SDS011;65911;47.502;19.148;2023-06-10T12:37:14;4.28;;;3.45;;
76978;SDS011;65911;47.502;19.148;2023-06-10T12:40:17;3.42;;;3.10;;
76978;SDS011;65911;47.502;19.148;2023-06-10T12:43:20;3.60;;;3.30;;
76978;SDS011;65911;47.502;19.148;2023-06-10T12:46:23;3.85;;;2.70;;
76978;SDS011;65911;47.502;19.148;2023-06-10T12:49:26;2.77;;;2.57;;
76978;SDS011;65911;47.502;19.148;2023-06-10T12:52:28;2.97;;;2.75;;
76978;SDS011;65911;47.502;19.148;2023-06-10T12:55:31;3.58;;;2.92;;
76978;SDS011;65911;47.502;19.148;2023-06-10T12:58:34;3.00;;;2.70;;
76978;SDS011;65911;47.502;19.148;2023-06-10T13:01:37;3.13;;;2.55;;
76978;SDS011;65911;47.502;19.148;2023-06-10T13:04:40;3.40;;;2.25;;
76978;SDS011;65911;47.502;19.148;2023-06-10T13:07:43;2.83;;;2.50;;
76978;SDS011;65911;47.502;19.148;2023-06-10T13:10:46;3.05;;;2.85;;
76978;SDS011;65911;47.502;19.148;2023-06-10T13:13:48;3.70;;;2.72;;
76978;SDS011;65911;47.502;19.148;2023-06-10T13:16:50;2.45;;;2.25;;
76978;SDS011;65911;47.502;19.148;2023-06-10T13:19:53;2.40;;;2.20;;
76978;SDS011;65911;47.502;19.148;2023-06-10T13:22:55;2.50;;;2.30;;
76978;SDS011;65911;47.502;19.148;2023-06-10T13:25:57;3.10;;;2.40;;
76978;SDS011;65911;47.502;19.148;2023-06-10T13:29:00;2.60;;;2.40;;
76978;SDS011;65911;47.502;19.148;2023-06-10T13:32:02;3.20;;;2.90;;
76978;SDS011;65911;47.502;19.148;2023-06-10T13:35:04;2.83;;;2.53;;
76978;SDS011;65911;47.502;19.148;2023-06-10T13:38:07;3.45;;;2.63;;
76978;SDS011;65911;47.502;19.148;2023-06-10T13:41:09;2.95;;;2.75;;
76978;SDS011;65911;47.502;19.148;2023-06-10T13:44:12;3.65;;;3.00;;
76978;SDS011;65911;47.502;19.148;2023-06-10T13:47:14;3.45;;;2.30;;
76978;SDS011;65911;47.502;19.148;2023-06-10T13:50:17;2.80;;;2.60;;
76978;SDS011;65911;47.502;19.148;2023-06-10T13:53:19;2.72;;;2.50;;
76978;SDS011;65911;47.502;19.148;2023-06-10T13:56:21;3.10;;;2.47;;
76978;SDS011;65911;47.502;19.148;2023-06-10T13:59:23;3.67;;;2.63;;
76978;SDS011;65911;47.502;19.148;2023-06-10T14:02:25;4.38;;;2.70;;
76978;SDS011;65911;47.502;19.148;2023-06-10T14:05:28;3.35;;;2.88;;
76978;SDS011;65911;47.502;19.148;2023-06-10T14:08:33;4.57;;;3.03;;
76978;SDS011;65911;47.502;19.148;2023-06-10T14:11:35;5.07;;;3.05;;
76978;SDS011;65911;47.502;19.148;2023-06-10T14:14:37;3.45;;;3.08;;
76978;SDS011;65911;47.502;19.148;2023-06-10T14:17:39;3.75;;;3.28;;
76978;SDS011;65911;47.502;19.148;2023-06-10T14:20:42;5.17;;;2.80;;
76978;SDS011;65911;47.502;19.148;2023-06-10T14:23:44;3.13;;;2.63;;
76978;SDS011;65911;47.502;19.148;2023-06-10T14:26:47;3.40;;;3.10;;
76978;SDS011;65911;47.502;19.148;2023-06-10T14:29:49;3.77;;;3.00;;
76978;SDS011;65911;47.502;19.148;2023-06-10T14:32:52;3.50;;;2.65;;
76978;SDS011;65911;47.502;19.148;2023-06-10T14:35:54;3.25;;;2.95;;
76978;SDS011;65911;47.502;19.148;2023-06-10T14:38:56;3.35;;;3.05;;
76978;SDS011;65911;47.502;19.148;2023-06-10T14:41:59;3.15;;;2.63;;
76978;SDS011;65911;47.502;19.148;2023-06-10T14:45:01;3.33;;;3.00;;
76978;SDS011;65911;47.502;19.148;2023-06-10T14:48:03;3.20;;;2.90;;
76978;SDS011;65911;47.502;19.148;2023-06-10T14:51:06;3.10;;;2.80;;
76978;SDS011;65911;47.502;19.148;2023-06-10T14:54:08;3.20;;;2.90;;
76978;SDS011;65911;47.502;19.148;2023-06-10T14:57:11;3.25;;;2.80;;
76978;SDS011;65911;47.502;19.148;2023-06-10T15:00:13;3.40;;;3.00;;
76978;SDS011;65911;47.502;19.148;2023-06-10T15:03:17;3.58;;;3.08;;
76978;SDS011;65911;47.502;19.148;2023-06-10T15:06:19;3.58;;;3.00;;
76978;SDS011;65911;47.502;19.148;2023-06-10T15:09:24;3.30;;;2.90;;
76978;SDS011;65911;47.502;19.148;2023-06-10T15:12:26;3.40;;;2.90;;
76978;SDS011;65911;47.502;19.148;2023-06-10T15:15:29;3.45;;;2.63;;
76978;SDS011;65911;47.502;19.148;2023-06-10T15:18:32;2.47;;;2.20;;
76978;SDS011;65911;47.502;19.148;2023-06-10T15:21:35;2.57;;;2.20;;
76978;SDS011;65911;47.502;19.148;2023-06-10T15:24:38;4.88;;;2.40;;
76978;SDS011;65911;47.502;19.148;2023-06-10T15:27:40;3.38;;;2.03;;
76978;SDS011;65911;47.502;19.148;2023-06-10T15:30:42;2.10;;;1.90;;
76978;SDS011;65911;47.502;19.148;2023-06-10T15:33:45;2.28;;;1.60;;
76978;SDS011;65911;47.502;19.148;2023-06-10T15:36:48;1.85;;;1.70;;
76978;SDS011;65911;47.502;19.148;2023-06-10T15:39:51;2.20;;;1.60;;
76978;SDS011;65911;47.502;19.148;2023-06-10T15:42:53;3.35;;;1.60;;
76978;SDS011;65911;47.502;19.148;2023-06-10T15:45:55;5.28;;;1.75;;
76978;SDS011;65911;47.502;19.148;2023-06-10T15:48:57;1.70;;;1.60;;
76978;SDS011;65911;47.502;19.148;2023-06-10T15:51:59;3.67;;;1.60;;
76978;SDS011;65911;47.502;19.148;2023-06-10T15:55:02;3.28;;;1.48;;
76978;SDS011;65911;47.502;19.148;2023-06-10T15:58:04;3.40;;;1.73;;
76978;SDS011;65911;47.502;19.148;2023-06-10T16:01:06;2.73;;;1.70;;
76978;SDS011;65911;47.502;19.148;2023-06-10T16:04:11;1.33;;;1.20;;
76978;SDS011;65911;47.502;19.148;2023-06-10T16:07:13;2.50;;;1.70;;
76978;SDS011;65911;47.502;19.148;2023-06-10T16:10:15;5.50;;;1.90;;
76978;SDS011;65911;47.502;19.148;2023-06-10T16:13:18;2.47;;;1.83;;
76978;SDS011;65911;47.502;19.148;2023-06-10T16:16:20;3.95;;;1.95;;
76978;SDS011;65911;47.502;19.148;2023-06-10T16:19:23;2.47;;;1.95;;
76978;SDS011;65911;47.502;19.148;2023-06-10T16:22:28;2.00;;;1.70;;
76978;SDS011;65911;47.502;19.148;2023-06-10T16:25:31;3.15;;;2.15;;
76978;SDS011;65911;47.502;19.148;2023-06-10T16:28:35;2.80;;;2.10;;
76978;SDS011;65911;47.502;19.148;2023-06-10T16:31:37;2.77;;;2.00;;
76978;SDS011;65911;47.502;19.148;2023-06-10T16:34:40;4.07;;;2.28;;
76978;SDS011;65911;47.502;19.148;2023-06-10T16:37:43;3.95;;;2.13;;
76978;SDS011;65911;47.502;19.148;2023-06-10T16:40:46;4.05;;;2.60;;
76978;SDS011;65911;47.502;19.148;2023-06-10T16:43:48;2.53;;;2.28;;
76978;SDS011;65911;47.502;19.148;2023-06-10T16:46:50;3.00;;;2.10;;
76978;SDS011;65911;47.502;19.148;2023-06-10T16:49:53;3.67;;;2.63;;
76978;SDS011;65911;47.502;19.148;2023-06-10T16:52:55;2.90;;;2.10;;
76978;SDS011;65911;47.502;19.148;2023-06-10T16:56:01;3.45;;;2.35;;
76978;SDS011;65911;47.502;19.148;2023-06-10T16:59:04;4.10;;;2.40;;
76978;SDS011;65911;47.502;19.148;2023-06-10T17:02:07;3.50;;;2.43;;
76978;SDS011;65911;47.502;19.148;2023-06-10T17:05:10;3.17;;;2.40;;
76978;SDS011;65911;47.502;19.148;2023-06-10T17:08:13;5.10;;;2.40;;
76978;SDS011;65911;47.502;19.148;2023-06-10T17:11:15;4.88;;;2.22;;
76978;SDS011;65911;47.502;19.148;2023-06-10T17:14:17;2.97;;;2.33;;
76978;SDS011;65911;47.502;19.148;2023-06-10T17:17:20;3.58;;;2.15;;
76978;SDS011;65911;47.502;19.148;2023-06-10T17:20:22;2.53;;;2.30;;
76978;SDS011;65911;47.502;19.148;2023-06-10T17:23:24;3.10;;;2.30;;
76978;SDS011;65911;47.502;19.148;2023-06-10T17:26:27;4.00;;;2.55;;
76978;SDS011;65911;47.502;19.148;2023-06-10T17:29:29;4.22;;;2.60;;
76978;SDS011;65911;47.502;19.148;2023-06-10T17:32:34;3.17;;;2.40;;
76978;SDS011;65911;47.502;19.148;2023-06-10T17:35:36;3.63;;;2.55;;
76978;SDS011;65911;47.502;19.148;2023-06-10T17:38:39;5.38;;;2.50;;
76978;SDS011;65911;47.502;19.148;2023-06-10T17:41:41;4.30;;;2.60;;
76978;SDS011;65911;47.502;19.148;2023-06-10T17:44:43;3.30;;;2.47;;
76978;SDS011;65911;47.502;19.148;2023-06-10T17:47:46;3.83;;;2.50;;
76978;SDS011;65911;47.502;19.148;2023-06-10T17:50:48;3.10;;;2.47;;
76978;SDS011;65911;47.502;19.148;2023-06-10T17:53:50;3.53;;;2.63;;
76978;SDS011;65911;47.502;19.148;2023-06-10T17:56:53;4.03;;;2.50;;
76978;SDS011;65911;47.502;19.148;2023-06-10T17:59:56;5.43;;;2.45;;
76978;SDS011;65911;47.502;19.148;2023-06-10T18:02:58;3.80;;;2.87;;
76978;SDS011;65911;47.502;19.148;2023-06-10T18:06:00;6.05;;;2.13;;
76978;SDS011;65911;47.502;19.148;2023-06-10T18:09:03;3.40;;;2.53;;
76978;SDS011;65911;47.502;19.148;2023-06-10T18:12:05;4.57;;;2.97;;
76978;SDS011;65911;47.502;19.148;2023-06-10T18:15:08;5.38;;;3.30;;